F/V Papi Paul — FVFG — position and weather

sailwx.info

Track history (hours):
 
Tides and Currents Weather Stations Pressure Air Temp Water Temp Dewpoint Dewpoint Depression Visibility Wind Speed Wind Dir Waves Ship Positions

F/V Papi Paul

Last reported at 2018-May-21 06:46 UTC. Time now 2018-May-21 07:11 UTC.
Position N 47°23' W 003°50'.

Length 18 m.

Type: Fishing. MMSI: 228364000.

Date/timePositionNaut miles runAvg speedWind from/ knotsBaromVisibWave heightAir tempDewpointWater temp
2018-May-21 06:46N 47°23' W 003°50'2 8.8
2018-May-21 06:30N 47°25' W 003°48'4 8.9
2018-May-21 06:00N 47°28' W 003°43'4 8.8
2018-May-21 05:30N 47°31' W 003°38'5 9.1
2018-May-21 05:00N 47°34' W 003°33'3 6.2
2018-May-21 04:30N 47°36' W 003°30'1 1.5
2018-May-21 04:00N 47°35' W 003°30'0 0.2
2018-May-21 03:30N 47°36' W 003°30'0 0.1
2018-May-21 03:00N 47°36' W 003°30'0 0.1
2018-May-21 02:30N 47°36' W 003°30'1 1.4
2018-May-21 02:00N 47°35' W 003°30'2 4.7
2018-May-21 01:30N 47°33' W 003°30'2 4.5
2018-May-21 01:00N 47°30' W 003°30'2 4.4
2018-May-21 00:30N 47°28' W 003°31'2 4.3
2018-May-21 00:00N 47°26' W 003°31'2 4.2
2018-May-20 23:30N 47°24' W 003°31'2 4.4
2018-May-20 23:00N 47°22' W 003°31'2 4.5
2018-May-20 22:30N 47°19' W 003°31'2 4.6
2018-May-20 22:00N 47°17' W 003°31'2 4.5
2018-May-20 21:30N 47°15' W 003°31'2 4.4
2018-May-20 20:59N 47°13' W 003°31'2 4.3
2018-May-20 20:26N 47°10' W 003°32'2 4.2
2018-May-20 20:00N 47°08' W 003°32'2 4.1
2018-May-20 19:30N 47°06' W 003°32'2 4.2
2018-May-20 19:00N 47°04' W 003°33'1 2.2
2018-May-20 18:30N 47°03' W 003°34'2 3.5
2018-May-20 18:00N 47°03' W 003°36'2 4.3
2018-May-20 17:30N 47°01' W 003°39'2 4.4
2018-May-20 17:00N 47°00' W 003°41'12 2.7
2018-May-20 12:32N 47°10' W 003°53'0 0.7
2018-May-20 12:30N 47°10' W 003°53'1 1.9
2018-May-20 11:59N 47°09' W 003°54'3 5.4
2018-May-20 11:30N 47°07' W 003°56'2 3.2
2018-May-20 11:00N 47°08' W 003°54'21 9.0
2018-May-20 08:43N 47°21' W 003°31'2 8.8
2018-May-20 08:26N 47°23' W 003°29'4 8.6
2018-May-20 08:00N 47°25' W 003°24'2 3.5
2018-May-20 07:30N 47°27' W 003°22'0 0.2
2018-May-20 07:00N 47°27' W 003°23'0 0.6
2018-May-20 06:30N 47°26' W 003°22'4 8.6
2018-May-20 06:00N 47°29' W 003°17'3 7.0
2018-May-20 05:30N 47°32' W 003°14'1 1.8
2018-May-20 05:00N 47°32' W 003°15'0 0.3
2018-May-20 04:30N 47°32' W 003°16'1 1.2
2018-May-20 04:00N 47°31' W 003°16'1 1.1
2018-May-20 03:30N 47°31' W 003°16'0 0.4
2018-May-20 03:00N 47°31' W 003°17'0 0.3
2018-May-20 02:30N 47°31' W 003°17'0 0.1
2018-May-20 02:00N 47°31' W 003°17'0 0.2
2018-May-20 01:30N 47°31' W 003°17'0 0.4
2018-May-20 01:00N 47°31' W 003°16'0 0.5
2018-May-20 00:30N 47°31' W 003°16'0 0.7
2018-May-20 00:00N 47°32' W 003°16'1 1.4
2018-May-19 23:30N 47°31' W 003°17'2 4.3
2018-May-19 23:00N 47°31' W 003°20'2 4.2
2018-May-19 22:30N 47°29' W 003°21'2 4.9
2018-May-19 22:00N 47°26' W 003°21'2 4.7
2018-May-19 21:30N 47°24' W 003°21'2 4.2
2018-May-19 21:00N 47°22' W 003°21'2 4.2
2018-May-19 20:30N 47°20' W 003°20'2 4.3
2018-May-19 20:00N 47°18' W 003°19'2 4.3
2018-May-19 19:30N 47°16' W 003°19'2 4.3
2018-May-19 19:01N 47°14' W 003°19'2 4.8
2018-May-19 18:30N 47°11' W 003°19'3 6.0
2018-May-19 18:00N 47°09' W 003°21'5 9.3
2018-May-19 17:30N 47°06' W 003°27'2 4.0
2018-May-19 17:00N 47°06' W 003°30'2 4.0
2018-May-19 16:30N 47°07' W 003°27'3 4.4
2018-May-19 15:53N 47°08' W 003°24'1 3.9
2018-May-19 15:30N 47°09' W 003°22'5 9.4
2018-May-19 15:01N 47°06' W 003°28'25 3.3
2018-May-19 07:25N 47°08' W 002°51'8 8.5
2018-May-19 06:27N 47°13' W 002°41'4 8.6
2018-May-19 05:59N 47°15' W 002°36'2 3.4
2018-May-19 05:30N 47°14' W 002°38'3 6.0
2018-May-19 05:00N 47°12' W 002°42'3 5.2
2018-May-19 04:30N 47°14' W 002°38'1 2.3
2018-May-19 03:55N 47°14' W 002°37'3 7.4
2018-May-19 03:30N 47°17' W 002°35'4 7.3
2018-May-19 02:58N 47°20' W 002°32'1 0.8
2018-May-19 02:01N 47°21' W 002°31'0 6.0
2018-May-19 01:56N 47°20' W 002°31'2 4.5
2018-May-19 01:30N 47°19' W 002°33'0 1.0
2018-May-19 01:00N 47°19' W 002°34'5 8.2
2018-May-19 00:27N 47°15' W 002°36'4 7.7
2018-May-19 00:00N 47°12' W 002°39'10 7.2
2018-May-18 22:39N 47°05' W 002°49'1 6.9
2018-May-18 22:30N 47°04' W 002°50'6 6.9
2018-May-18 21:40N 46°60' W 002°56'3 7.2
2018-May-18 21:18N 46°58' W 002°58'14 7.6
2018-May-18 19:27N 46°47' W 003°12'1 1.3
2018-May-18 18:37N 46°47' W 003°10'0 2.8
2018-May-18 18:30N 46°47' W 003°10'1 2.1
2018-May-18 17:54N 46°48' W 003°09'7 5.1
2018-May-18 16:26N 46°51' W 002°59'19 4.3
2018-May-18 12:01N 46°55' W 002°32'2 9.4
2018-May-18 11:46N 46°52' W 002°33'3 8.9
2018-May-18 11:24N 46°49' W 002°35'10 7.8
2018-May-18 10:09N 46°43' W 002°46'1 2.4
2018-May-18 09:50N 46°42' W 002°46'2 2.6
2018-May-18 09:01N 46°41' W 002°49'1 8.1
2018-May-18 08:52N 46°40' W 002°51'  
2018-May-15 21:07N 46°56' W 002°39'1 8.6
2018-May-15 21:00N 46°57' W 002°39'5 8.6
2018-May-15 20:29N 47°01' W 002°38'4 8.6
2018-May-15 19:58N 47°06' W 002°37'13 8.9
2018-May-15 18:29N 47°19' W 002°34'3 6.4
2018-May-15 18:00N 47°21' W 002°31'0 0.0
2018-May-15 17:29N 47°21' W 002°31'0 0.0
2018-May-15 17:00N 47°21' W 002°31'0 0.0
2018-May-15 16:29N 47°21' W 002°31'0 0.0
2018-May-15 16:00N 47°21' W 002°31'3 6.7
2018-May-15 15:30N 47°18' W 002°34'4 8.9
2018-May-15 15:00N 47°14' W 002°34'5 9.4
2018-May-15 14:30N 47°09' W 002°36'510.0
2018-May-15 14:00N 47°05' W 002°39'2 4.2
2018-May-15 13:29N 47°04' W 002°42'5 3.6
2018-May-15 12:07N 47°07' W 002°47'1 2.4
2018-May-15 11:46N 47°08' W 002°46'4 3.3
2018-May-15 10:28N 47°06' W 002°41'2 3.4
2018-May-15 09:58N 47°04' W 002°39'10 3.3
2018-May-15 06:56N 47°01' W 002°54'4 8.9
2018-May-15 06:28N 47°01' W 002°60'5 8.8
2018-May-15 05:58N 47°00' W 003°06'7 2.9
2018-May-15 03:40N 47°05' W 003°14'0 3.0
2018-May-15 03:30N 47°04' W 003°14'2 3.1
2018-May-15 02:48N 47°02' W 003°14'1 3.0
2018-May-15 02:20N 47°01' W 003°14'1 2.7
2018-May-15 01:56N 47°01' W 003°16'1 3.2
2018-May-15 01:30N 47°02' W 003°16'2 3.3
2018-May-15 00:58N 47°04' W 003°16'1 2.0
2018-May-15 00:26N 47°05' W 003°16'1 1.8
2018-May-15 00:00N 47°04' W 003°15'2 3.5
2018-May-14 23:30N 47°03' W 003°15'2 3.5
2018-May-14 23:00N 47°01' W 003°15'3 1.6
2018-May-14 21:15N 47°03' W 003°17'5 3.2
2018-May-14 19:46N 47°06' W 003°11'2 7.3
2018-May-14 19:26N 47°07' W 003°07'4 9.3
2018-May-14 18:59N 47°07' W 003°01'7 9.2
2018-May-14 18:12N 47°08' W 002°51'2 8.4
2018-May-14 17:56N 47°08' W 002°48'1 1.6
2018-May-14 17:29N 47°07' W 002°47'6 2.3
2018-May-14 14:48N 47°06' W 002°38'1 4.4
2018-May-14 14:29N 47°06' W 002°40'3 4.2
2018-May-14 13:51N 47°07' W 002°44'4 3.6
2018-May-14 12:38N 47°11' W 002°43'0 3.3
2018-May-14 12:30N 47°12' W 002°43'5 6.7
2018-May-14 11:46N 47°15' W 002°37'3 9.6
2018-May-14 11:29N 47°17' W 002°35'  
2018-May-11 12:53N 47°21' W 002°31'0 0.0
2018-May-11 11:54N 47°21' W 002°31'0 0.0
2018-May-11 11:28N 47°21' W 002°31'0 0.0
2018-May-11 10:58N 47°21' W 002°31'0 0.0
2018-May-11 10:28N 47°21' W 002°31'0 0.0
2018-May-11 09:59N 47°21' W 002°31'0 0.0
2018-May-11 08:52N 47°21' W 002°31'0 0.0
2018-May-11 08:10N 47°21' W 002°31'  
Track history (hours):
 
Tides and Currents Weather Stations Pressure Air Temp Water Temp Dewpoint Dewpoint Depression Visibility Wind Speed Wind Dir Waves Ship Positions

F/V Papi Paul

Last reported at 2018-May-21 06:46 UTC. Time now 2018-May-21 07:11 UTC.
Position N 47°23' W 003°50'.

Length 18 m.

Type: Fishing. MMSI: 228364000.

Date/timePositionNaut miles runAvg speedWind from/ knotsBaromVisibWave heightAir tempDewpointWater temp
2018-May-21 06:46N 47°23' W 003°50'2 8.8
2018-May-21 06:30N 47°25' W 003°48'4 8.9
2018-May-21 06:00N 47°28' W 003°43'4 8.8
2018-May-21 05:30N 47°31' W 003°38'5 9.1
2018-May-21 05:00N 47°34' W 003°33'3 6.2
2018-May-21 04:30N 47°36' W 003°30'1 1.5
2018-May-21 04:00N 47°35' W 003°30'0 0.2
2018-May-21 03:30N 47°36' W 003°30'0 0.1
2018-May-21 03:00N 47°36' W 003°30'0 0.1
2018-May-21 02:30N 47°36' W 003°30'1 1.4
2018-May-21 02:00N 47°35' W 003°30'2 4.7
2018-May-21 01:30N 47°33' W 003°30'2 4.5
2018-May-21 01:00N 47°30' W 003°30'2 4.4
2018-May-21 00:30N 47°28' W 003°31'2 4.3
2018-May-21 00:00N 47°26' W 003°31'2 4.2
2018-May-20 23:30N 47°24' W 003°31'2 4.4
2018-May-20 23:00N 47°22' W 003°31'2 4.5
2018-May-20 22:30N 47°19' W 003°31'2 4.6
2018-May-20 22:00N 47°17' W 003°31'2 4.5
2018-May-20 21:30N 47°15' W 003°31'2 4.4
2018-May-20 20:59N 47°13' W 003°31'2 4.3
2018-May-20 20:26N 47°10' W 003°32'2 4.2
2018-May-20 20:00N 47°08' W 003°32'2 4.1
2018-May-20 19:30N 47°06' W 003°32'2 4.2
2018-May-20 19:00N 47°04' W 003°33'1 2.2
2018-May-20 18:30N 47°03' W 003°34'2 3.5
2018-May-20 18:00N 47°03' W 003°36'2 4.3
2018-May-20 17:30N 47°01' W 003°39'2 4.4
2018-May-20 17:00N 47°00' W 003°41'12 2.7
2018-May-20 12:32N 47°10' W 003°53'0 0.7
2018-May-20 12:30N 47°10' W 003°53'1 1.9
2018-May-20 11:59N 47°09' W 003°54'3 5.4
2018-May-20 11:30N 47°07' W 003°56'2 3.2
2018-May-20 11:00N 47°08' W 003°54'21 9.0
2018-May-20 08:43N 47°21' W 003°31'2 8.8
2018-May-20 08:26N 47°23' W 003°29'4 8.6
2018-May-20 08:00N 47°25' W 003°24'2 3.5
2018-May-20 07:30N 47°27' W 003°22'0 0.2
2018-May-20 07:00N 47°27' W 003°23'0 0.6
2018-May-20 06:30N 47°26' W 003°22'4 8.6
2018-May-20 06:00N 47°29' W 003°17'3 7.0
2018-May-20 05:30N 47°32' W 003°14'1 1.8
2018-May-20 05:00N 47°32' W 003°15'0 0.3
2018-May-20 04:30N 47°32' W 003°16'1 1.2
2018-May-20 04:00N 47°31' W 003°16'1 1.1
2018-May-20 03:30N 47°31' W 003°16'0 0.4
2018-May-20 03:00N 47°31' W 003°17'0 0.3
2018-May-20 02:30N 47°31' W 003°17'0 0.1
2018-May-20 02:00N 47°31' W 003°17'0 0.2
2018-May-20 01:30N 47°31' W 003°17'0 0.4
2018-May-20 01:00N 47°31' W 003°16'0 0.5
2018-May-20 00:30N 47°31' W 003°16'0 0.7
2018-May-20 00:00N 47°32' W 003°16'1 1.4
2018-May-19 23:30N 47°31' W 003°17'2 4.3
2018-May-19 23:00N 47°31' W 003°20'2 4.2
2018-May-19 22:30N 47°29' W 003°21'2 4.9
2018-May-19 22:00N 47°26' W 003°21'2 4.7
2018-May-19 21:30N 47°24' W 003°21'2 4.2
2018-May-19 21:00N 47°22' W 003°21'2 4.2
2018-May-19 20:30N 47°20' W 003°20'2 4.3
2018-May-19 20:00N 47°18' W 003°19'2 4.3
2018-May-19 19:30N 47°16' W 003°19'2 4.3
2018-May-19 19:01N 47°14' W 003°19'2 4.8
2018-May-19 18:30N 47°11' W 003°19'3 6.0
2018-May-19 18:00N 47°09' W 003°21'5 9.3
2018-May-19 17:30N 47°06' W 003°27'2 4.0
2018-May-19 17:00N 47°06' W 003°30'2 4.0
2018-May-19 16:30N 47°07' W 003°27'3 4.4
2018-May-19 15:53N 47°08' W 003°24'1 3.9
2018-May-19 15:30N 47°09' W 003°22'5 9.4
2018-May-19 15:01N 47°06' W 003°28'25 3.3
2018-May-19 07:25N 47°08' W 002°51'8 8.5
2018-May-19 06:27N 47°13' W 002°41'4 8.6
2018-May-19 05:59N 47°15' W 002°36'2 3.4
2018-May-19 05:30N 47°14' W 002°38'3 6.0
2018-May-19 05:00N 47°12' W 002°42'3 5.2
2018-May-19 04:30N 47°14' W 002°38'1 2.3
2018-May-19 03:55N 47°14' W 002°37'3 7.4
2018-May-19 03:30N 47°17' W 002°35'4 7.3
2018-May-19 02:58N 47°20' W 002°32'1 0.8
2018-May-19 02:01N 47°21' W 002°31'0 6.0
2018-May-19 01:56N 47°20' W 002°31'2 4.5
2018-May-19 01:30N 47°19' W 002°33'0 1.0
2018-May-19 01:00N 47°19' W 002°34'5 8.2
2018-May-19 00:27N 47°15' W 002°36'4 7.7
2018-May-19 00:00N 47°12' W 002°39'10 7.2
2018-May-18 22:39N 47°05' W 002°49'1 6.9
2018-May-18 22:30N 47°04' W 002°50'6 6.9
2018-May-18 21:40N 46°60' W 002°56'3 7.2
2018-May-18 21:18N 46°58' W 002°58'14 7.6
2018-May-18 19:27N 46°47' W 003°12'1 1.3
2018-May-18 18:37N 46°47' W 003°10'0 2.8
2018-May-18 18:30N 46°47' W 003°10'1 2.1
2018-May-18 17:54N 46°48' W 003°09'7 5.1
2018-May-18 16:26N 46°51' W 002°59'19 4.3
2018-May-18 12:01N 46°55' W 002°32'2 9.4
2018-May-18 11:46N 46°52' W 002°33'3 8.9
2018-May-18 11:24N 46°49' W 002°35'10 7.8
2018-May-18 10:09N 46°43' W 002°46'1 2.4
2018-May-18 09:50N 46°42' W 002°46'2 2.6
2018-May-18 09:01N 46°41' W 002°49'1 8.1
2018-May-18 08:52N 46°40' W 002°51'  
2018-May-15 21:07N 46°56' W 002°39'1 8.6
2018-May-15 21:00N 46°57' W 002°39'5 8.6
2018-May-15 20:29N 47°01' W 002°38'4 8.6
2018-May-15 19:58N 47°06' W 002°37'13 8.9
2018-May-15 18:29N 47°19' W 002°34'3 6.4
2018-May-15 18:00N 47°21' W 002°31'0 0.0
2018-May-15 17:29N 47°21' W 002°31'0 0.0
2018-May-15 17:00N 47°21' W 002°31'0 0.0
2018-May-15 16:29N 47°21' W 002°31'0 0.0
2018-May-15 16:00N 47°21' W 002°31'3 6.7
2018-May-15 15:30N 47°18' W 002°34'4 8.9
2018-May-15 15:00N 47°14' W 002°34'5 9.4
2018-May-15 14:30N 47°09' W 002°36'510.0
2018-May-15 14:00N 47°05' W 002°39'2 4.2
2018-May-15 13:29N 47°04' W 002°42'5 3.6
2018-May-15 12:07N 47°07' W 002°47'1 2.4
2018-May-15 11:46N 47°08' W 002°46'4 3.3
2018-May-15 10:28N 47°06' W 002°41'2 3.4
2018-May-15 09:58N 47°04' W 002°39'10 3.3
2018-May-15 06:56N 47°01' W 002°54'4 8.9
2018-May-15 06:28N 47°01' W 002°60'5 8.8
2018-May-15 05:58N 47°00' W 003°06'7 2.9
2018-May-15 03:40N 47°05' W 003°14'0 3.0
2018-May-15 03:30N 47°04' W 003°14'2 3.1
2018-May-15 02:48N 47°02' W 003°14'1 3.0
2018-May-15 02:20N 47°01' W 003°14'1 2.7
2018-May-15 01:56N 47°01' W 003°16'1 3.2
2018-May-15 01:30N 47°02' W 003°16'2 3.3
2018-May-15 00:58N 47°04' W 003°16'1 2.0
2018-May-15 00:26N 47°05' W 003°16'1 1.8
2018-May-15 00:00N 47°04' W 003°15'2 3.5
2018-May-14 23:30N 47°03' W 003°15'2 3.5
2018-May-14 23:00N 47°01' W 003°15'3 1.6
2018-May-14 21:15N 47°03' W 003°17'5 3.2
2018-May-14 19:46N 47°06' W 003°11'2 7.3
2018-May-14 19:26N 47°07' W 003°07'4 9.3
2018-May-14 18:59N 47°07' W 003°01'7 9.2
2018-May-14 18:12N 47°08' W 002°51'2 8.4
2018-May-14 17:56N 47°08' W 002°48'1 1.6
2018-May-14 17:29N 47°07' W 002°47'6 2.3
2018-May-14 14:48N 47°06' W 002°38'1 4.4
2018-May-14 14:29N 47°06' W 002°40'3 4.2
2018-May-14 13:51N 47°07' W 002°44'4 3.6
2018-May-14 12:38N 47°11' W 002°43'0 3.3
2018-May-14 12:30N 47°12' W 002°43'5 6.7
2018-May-14 11:46N 47°15' W 002°37'3 9.6
2018-May-14 11:29N 47°17' W 002°35'  
2018-May-11 12:53N 47°21' W 002°31'0 0.0
2018-May-11 11:54N 47°21' W 002°31'0 0.0
2018-May-11 11:28N 47°21' W 002°31'0 0.0
2018-May-11 10:58N 47°21' W 002°31'0 0.0
2018-May-11 10:28N 47°21' W 002°31'0 0.0
2018-May-11 09:59N 47°21' W 002°31'0 0.0
2018-May-11 08:52N 47°21' W 002°31'0 0.0
2018-May-11 08:10N 47°21' W 002°31'  

Dump ship's entire track history